Date,TemperatureHighF,TemperatureAvgF,TemperatureLowF,DewpointHighF,DewpointAvgF,DewpointLowF,HumidityHigh,HumidityAvg,HumidityLow,PressureMaxIn,PressureMinIn,WindSpeedMaxMPH,WindSpeedAvgMPH,GustSpeedMaxMPH,PrecipitationSumIn
2013-4-1,79.5,65.8,54.9,65.5,54.4,43.7,99,72,29,30.11,29.96,9,2,11,0.01
2013-4-2,79.0,65.8,53.4,61.0,54.4,49.1,93,70,36,30.12,29.95,11,4,15,0.02
2013-4-3,65.8,61.1,52.5,64.6,59.4,50.9,99,94,85,30.04,29.74,21,5,24,1.04
2013-4-4,58.1,52.8,49.3,53.1,48.8,44.6,99,87,67,30.09,29.93,15,3,15,0.00
2013-4-5,71.4,56.2,48.2,46.0,43.7,38.7,84,66,31,30.21,30.07,9,3,13,0.00
2013-4-6,73.9,61.3,46.2,53.2,46.2,36.0,93,62,28,30.16,30.04,12,3,13,0.00
2013-4-7,78.6,67.0,55.0,59.7,55.0,51.3,94,68,39,30.10,29.96,12,3,15,0.00
2013-4-8,83.7,71.4,59.4,66.6,60.2,55.6,99,71,39,30.01,29.90,17,4,23,0.00
2013-4-9,85.6,77.7,72.0,72.1,69.0,65.8,91,76,53,29.99,29.90,16,6,20,0.00
2013-4-10,83.8,78.0,74.5,71.4,69.0,66.4,88,75,58,29.96,29.79,13,6,20,0.00
2013-4-11,77.2,66.2,52.3,73.6,60.8,48.2,99,83,65,29.87,29.68,15,4,15,0.66
2013-4-12,78.6,61.4,46.6,52.0,40.3,18.9,96,57,11,30.01,29.87,11,2,11,0.01
2013-4-13,78.8,66.8,52.9,52.5,38.9,21.2,71,41,12,30.05,29.87,16,4,16,0.05
2013-4-14,77.5,65.5,58.3,63.1,59.4,52.9,99,82,50,29.88,29.74,17,5,19,1.55
2013-4-15,79.7,71.7,62.8,75.4,69.1,61.0,99,92,74,29.98,29.82,11,4,11,0.02
2013-4-16,85.8,78.2,73.8,75.4,72.5,68.7,99,84,59,30.08,29.96,13,5,15,0.04
2013-4-17,85.8,78.8,73.0,74.5,71.6,68.7,99,80,59,30.07,29.93,16,6,21,0.00
2013-4-18,84.9,77.7,58.8,71.1,68.2,55.9,90,74,56,29.93,29.76,18,8,22,0.06
2013-4-19,64.6,54.6,48.0,56.3,39.9,26.8,94,62,24,30.21,29.91,13,3,15,0.33
2013-4-20,71.6,56.7,41.7,43.3,32.6,13.8,89,49,11,30.29,30.12,15,3,16,0.00
2013-4-21,76.6,62.2,47.3,47.7,38.3,20.3,82,48,13,30.23,30.10,12,3,17,0.00
2013-4-22,81.7,66.9,51.8,63.9,49.6,38.3,89,60,22,30.15,30.00,9,3,14,0.00
2013-4-23,84.6,74.9,67.3,67.8,64.1,58.1,92,71,41,30.07,29.95,12,5,15,0.00
2013-4-24,72.7,66.2,57.7,71.1,62.5,52.7,99,88,76,30.22,29.99,11,4,18,1.48
2013-4-25,76.3,63.0,48.7,54.0,45.6,22.3,89,59,19,30.33,29.88,15,5,18,0.00
2013-4-26,61.2,58.5,44.6,46.2,44.1,27.5,65,59,48,30.27,30.21,8,2,8,0.00